Lincoln, Illinois
Current Conditions -  °F | °C
As of 11:55 PM on Thursday 27 Nov 2014 (Local Time) from KAAA Reporting Station
Broken Clouds Broken Clouds  
Wind Chill: 17°   Ceiling: 9000
Heat Index: 17°   Visibility: 10mi
Dew Point:   Wind: 0mph
Humidity: 70%   Direction: NA
Pressure: 30.45"   Gusts: NA
Location:  40.15°N, 89.36°W
Report Text: KAAA 280555Z AUTO 00000KT 10SM BKN090 M09/M13 A3045 RMK AO2 T10861132 11072 21124 410131124
Loading
Personal Weather Stations






























Interactive Weather Map New forecast layout! Learn more

10-Day Weather Forecast

Advertisements
Track Severe Weather on mobile